sensor_id;sensor_type;location;lat;lon;timestamp;temperature;humidity
26053;DHT22;13826;51.186;4.450;2022-12-18T00:01:23;-3.60;99.90
26053;DHT22;13826;51.186;4.450;2022-12-18T00:03:49;-3.60;99.90
26053;DHT22;13826;51.186;4.450;2022-12-18T00:06:15;-3.60;99.90
26053;DHT22;13826;51.186;4.450;2022-12-18T00:08:41;-3.60;99.90
26053;DHT22;13826;51.186;4.450;2022-12-18T00:11:07;-3.50;99.90
26053;DHT22;13826;51.186;4.450;2022-12-18T00:13:33;-3.60;99.90
26053;DHT22;13826;51.186;4.450;2022-12-18T00:16:03;-3.60;99.90
26053;DHT22;13826;51.186;4.450;2022-12-18T00:18:29;-3.70;99.90
26053;DHT22;13826;51.186;4.450;2022-12-18T00:20:57;-3.70;99.90
26053;DHT22;13826;51.186;4.450;2022-12-18T00:23:23;-3.70;99.90
26053;DHT22;13826;51.186;4.450;2022-12-18T00:25:49;-3.60;99.90
26053;DHT22;13826;51.186;4.450;2022-12-18T00:28:14;-3.60;99.90
26053;DHT22;13826;51.186;4.450;2022-12-18T00:30:40;-3.60;99.90
26053;DHT22;13826;51.186;4.450;2022-12-18T00:33:05;-3.60;99.90
26053;DHT22;13826;51.186;4.450;2022-12-18T00:35:31;-3.50;99.90
26053;DHT22;13826;51.186;4.450;2022-12-18T00:37:56;-3.40;99.90
26053;DHT22;13826;51.186;4.450;2022-12-18T00:40:22;-3.60;99.90
26053;DHT22;13826;51.186;4.450;2022-12-18T00:42:47;-3.60;99.90
26053;DHT22;13826;51.186;4.450;2022-12-18T00:45:25;-3.80;99.90
26053;DHT22;13826;51.186;4.450;2022-12-18T00:47:51;-3.80;99.90
26053;DHT22;13826;51.186;4.450;2022-12-18T00:50:17;-3.90;99.90
26053;DHT22;13826;51.186;4.450;2022-12-18T00:52:43;-3.90;99.90
26053;DHT22;13826;51.186;4.450;2022-12-18T00:55:09;-3.80;99.90
26053;DHT22;13826;51.186;4.450;2022-12-18T00:57:34;-3.80;99.90
26053;DHT22;13826;51.186;4.450;2022-12-18T01:00:00;-3.80;99.90
26053;DHT22;13826;51.186;4.450;2022-12-18T01:02:26;-3.70;99.90
26053;DHT22;13826;51.186;4.450;2022-12-18T01:04:51;-3.70;99.90
26053;DHT22;13826;51.186;4.450;2022-12-18T01:07:17;-3.80;99.90
26053;DHT22;13826;51.186;4.450;2022-12-18T01:09:43;-3.90;99.90
26053;DHT22;13826;51.186;4.450;2022-12-18T01:12:08;-4.00;99.90
26053;DHT22;13826;51.186;4.450;2022-12-18T01:14:34;-4.10;99.90
26053;DHT22;13826;51.186;4.450;2022-12-18T01:16:59;-4.10;99.90
26053;DHT22;13826;51.186;4.450;2022-12-18T01:19:27;-4.20;99.90
26053;DHT22;13826;51.186;4.450;2022-12-18T01:21:53;-4.30;99.90
26053;DHT22;13826;51.186;4.450;2022-12-18T01:24:19;-4.20;99.90
26053;DHT22;13826;51.186;4.450;2022-12-18T01:26:45;-4.20;99.90
26053;DHT22;13826;51.186;4.450;2022-12-18T01:29:10;-4.20;99.90
26053;DHT22;13826;51.186;4.450;2022-12-18T01:31:36;-4.20;99.90
26053;DHT22;13826;51.186;4.450;2022-12-18T01:34:02;-4.20;99.90
26053;DHT22;13826;51.186;4.450;2022-12-18T01:36:29;-4.20;99.90
26053;DHT22;13826;51.186;4.450;2022-12-18T01:38:55;-4.30;99.90
26053;DHT22;13826;51.186;4.450;2022-12-18T01:41:22;-4.30;99.90
26053;DHT22;13826;51.186;4.450;2022-12-18T01:43:50;-4.30;99.90
26053;DHT22;13826;51.186;4.450;2022-12-18T01:46:16;-4.40;99.90
26053;DHT22;13826;51.186;4.450;2022-12-18T01:48:43;-4.50;99.90
26053;DHT22;13826;51.186;4.450;2022-12-18T01:51:10;-4.50;99.90
26053;DHT22;13826;51.186;4.450;2022-12-18T01:53:37;-4.50;99.90
26053;DHT22;13826;51.186;4.450;2022-12-18T01:56:03;-4.50;99.90
26053;DHT22;13826;51.186;4.450;2022-12-18T01:59:02;-4.60;99.90
26053;DHT22;13826;51.186;4.450;2022-12-18T02:01:23;-4.60;99.90
26053;DHT22;13826;51.186;4.450;2022-12-18T02:03:50;-4.60;99.90
26053;DHT22;13826;51.186;4.450;2022-12-18T02:06:16;-4.60;99.90
26053;DHT22;13826;51.186;4.450;2022-12-18T02:08:53;-4.50;99.90
26053;DHT22;13826;51.186;4.450;2022-12-18T02:11:56;-4.50;99.90
26053;DHT22;13826;51.186;4.450;2022-12-18T02:17:00;-4.20;99.90
26053;DHT22;13826;51.186;4.450;2022-12-18T02:24:39;-4.50;99.90
26053;DHT22;13826;51.186;4.450;2022-12-18T02:27:08;-4.50;99.90
26053;DHT22;13826;51.186;4.450;2022-12-18T02:32:00;-4.40;99.90
26053;DHT22;13826;51.186;4.450;2022-12-18T02:34:28;-4.40;99.90
26053;DHT22;13826;51.186;4.450;2022-12-18T02:36:55;-4.50;99.90
26053;DHT22;13826;51.186;4.450;2022-12-18T02:39:23;-4.60;99.90
26053;DHT22;13826;51.186;4.450;2022-12-18T02:41:50;-4.50;99.90
26053;DHT22;13826;51.186;4.450;2022-12-18T02:44:16;-4.50;99.90
26053;DHT22;13826;51.186;4.450;2022-12-18T02:46:50;-4.60;99.90
26053;DHT22;13826;51.186;4.450;2022-12-18T02:52:15;-4.60;99.90
26053;DHT22;13826;51.186;4.450;2022-12-18T02:59:59;-4.40;99.90
26053;DHT22;13826;51.186;4.450;2022-12-18T03:02:31;-4.40;99.90
26053;DHT22;13826;51.186;4.450;2022-12-18T03:05:04;-4.30;99.90
26053;DHT22;13826;51.186;4.450;2022-12-18T03:07:36;-4.40;98.90
26053;DHT22;13826;51.186;4.450;2022-12-18T03:10:03;-4.50;99.20
26053;DHT22;13826;51.186;4.450;2022-12-18T03:12:31;-4.60;99.60
26053;DHT22;13826;51.186;4.450;2022-12-18T03:17:26;-4.70;99.90
26053;DHT22;13826;51.186;4.450;2022-12-18T03:19:52;-4.80;99.90
26053;DHT22;13826;51.186;4.450;2022-12-18T03:22:19;-4.70;99.90
26053;DHT22;13826;51.186;4.450;2022-12-18T03:24:46;-4.70;99.90
26053;DHT22;13826;51.186;4.450;2022-12-18T03:27:12;-4.70;99.90
26053;DHT22;13826;51.186;4.450;2022-12-18T03:29:40;-4.80;99.90
26053;DHT22;13826;51.186;4.450;2022-12-18T03:32:09;-4.70;99.90
26053;DHT22;13826;51.186;4.450;2022-12-18T03:34:36;-4.50;99.90
26053;DHT22;13826;51.186;4.450;2022-12-18T03:37:04;-4.50;99.90
26053;DHT22;13826;51.186;4.450;2022-12-18T03:39:30;-4.40;98.80
26053;DHT22;13826;51.186;4.450;2022-12-18T03:47:36;-4.40;97.00
26053;DHT22;13826;51.186;4.450;2022-12-18T03:52:38;-4.30;95.70
26053;DHT22;13826;51.186;4.450;2022-12-18T03:55:05;-4.30;95.20
26053;DHT22;13826;51.186;4.450;2022-12-18T03:57:31;-4.30;94.60
26053;DHT22;13826;51.186;4.450;2022-12-18T03:59:59;-4.40;95.00
26053;DHT22;13826;51.186;4.450;2022-12-18T04:02:26;-4.50;96.40
26053;DHT22;13826;51.186;4.450;2022-12-18T04:04:52;-4.70;98.00
26053;DHT22;13826;51.186;4.450;2022-12-18T04:07:19;-4.80;99.00
26053;DHT22;13826;51.186;4.450;2022-12-18T04:09:46;-4.80;99.40
26053;DHT22;13826;51.186;4.450;2022-12-18T04:12:13;-4.80;99.70
26053;DHT22;13826;51.186;4.450;2022-12-18T04:14:38;-4.80;99.80
26053;DHT22;13826;51.186;4.450;2022-12-18T04:17:04;-4.80;99.70
26053;DHT22;13826;51.186;4.450;2022-12-18T04:19:29;-4.90;99.90
26053;DHT22;13826;51.186;4.450;2022-12-18T04:21:55;-4.90;99.90
26053;DHT22;13826;51.186;4.450;2022-12-18T04:24:21;-4.90;99.90
26053;DHT22;13826;51.186;4.450;2022-12-18T04:26:46;-4.60;99.90
26053;DHT22;13826;51.186;4.450;2022-12-18T04:29:12;-4.50;99.10
26053;DHT22;13826;51.186;4.450;2022-12-18T04:31:37;-4.40;98.00
26053;DHT22;13826;51.186;4.450;2022-12-18T04:34:03;-4.30;97.00
26053;DHT22;13826;51.186;4.450;2022-12-18T04:36:29;-4.30;96.40
26053;DHT22;13826;51.186;4.450;2022-12-18T04:38:54;-4.30;96.30
26053;DHT22;13826;51.186;4.450;2022-12-18T04:41:20;-4.40;95.80
26053;DHT22;13826;51.186;4.450;2022-12-18T04:43:46;-4.40;96.00
26053;DHT22;13826;51.186;4.450;2022-12-18T04:46:11;-4.30;96.30
26053;DHT22;13826;51.186;4.450;2022-12-18T04:48:37;-4.10;95.40
26053;DHT22;13826;51.186;4.450;2022-12-18T04:51:03;-4.10;94.60
26053;DHT22;13826;51.186;4.450;2022-12-18T04:53:29;-4.10;94.10
26053;DHT22;13826;51.186;4.450;2022-12-18T04:58:29;-4.30;93.70
26053;DHT22;13826;51.186;4.450;2022-12-18T05:00:54;-4.30;93.80
26053;DHT22;13826;51.186;4.450;2022-12-18T05:03:20;-4.30;93.50
26053;DHT22;13826;51.186;4.450;2022-12-18T05:05:48;-4.10;93.10
26053;DHT22;13826;51.186;4.450;2022-12-18T05:08:14;-4.20;92.80
26053;DHT22;13826;51.186;4.450;2022-12-18T05:10:39;-4.10;92.80
26053;DHT22;13826;51.186;4.450;2022-12-18T05:13:05;-4.20;92.50
26053;DHT22;13826;51.186;4.450;2022-12-18T05:15:31;-4.10;93.10
26053;DHT22;13826;51.186;4.450;2022-12-18T05:17:57;-4.30;93.10
26053;DHT22;13826;51.186;4.450;2022-12-18T05:20:23;-4.50;95.00
26053;DHT22;13826;51.186;4.450;2022-12-18T05:22:49;-4.60;96.00
26053;DHT22;13826;51.186;4.450;2022-12-18T05:25:14;-4.50;96.40
26053;DHT22;13826;51.186;4.450;2022-12-18T05:27:40;-4.30;95.90
26053;DHT22;13826;51.186;4.450;2022-12-18T05:30:06;-4.10;95.00
26053;DHT22;13826;51.186;4.450;2022-12-18T05:32:32;-4.00;94.00
26053;DHT22;13826;51.186;4.450;2022-12-18T05:34:57;-4.30;93.20
26053;DHT22;13826;51.186;4.450;2022-12-18T05:37:23;-4.50;94.50
26053;DHT22;13826;51.186;4.450;2022-12-18T05:39:49;-4.70;96.00
26053;DHT22;13826;51.186;4.450;2022-12-18T05:42:14;-4.80;96.90
26053;DHT22;13826;51.186;4.450;2022-12-18T05:44:40;-4.90;97.20
26053;DHT22;13826;51.186;4.450;2022-12-18T05:47:05;-4.90;97.80
26053;DHT22;13826;51.186;4.450;2022-12-18T05:49:31;-5.00;98.20
26053;DHT22;13826;51.186;4.450;2022-12-18T05:51:56;-5.00;98.60
26053;DHT22;13826;51.186;4.450;2022-12-18T05:54:22;-5.10;98.70
26053;DHT22;13826;51.186;4.450;2022-12-18T05:56:48;-5.00;99.00
26053;DHT22;13826;51.186;4.450;2022-12-18T05:59:13;-5.00;99.00
26053;DHT22;13826;51.186;4.450;2022-12-18T06:01:39;-5.00;98.70
26053;DHT22;13826;51.186;4.450;2022-12-18T06:04:04;-5.00;98.70
26053;DHT22;13826;51.186;4.450;2022-12-18T06:06:30;-4.90;98.40
26053;DHT22;13826;51.186;4.450;2022-12-18T06:08:55;-4.80;98.30
26053;DHT22;13826;51.186;4.450;2022-12-18T06:11:23;-4.60;97.60
26053;DHT22;13826;51.186;4.450;2022-12-18T06:13:55;-4.40;96.80
26053;DHT22;13826;51.186;4.450;2022-12-18T06:16:20;-4.30;95.80
26053;DHT22;13826;51.186;4.450;2022-12-18T06:18:46;-4.30;94.50
26053;DHT22;13826;51.186;4.450;2022-12-18T06:21:12;-4.60;93.80
26053;DHT22;13826;51.186;4.450;2022-12-18T06:23:37;-4.80;95.10
26053;DHT22;13826;51.186;4.450;2022-12-18T06:26:04;-4.70;95.40
26053;DHT22;13826;51.186;4.450;2022-12-18T06:28:29;-4.80;95.50
26053;DHT22;13826;51.186;4.450;2022-12-18T06:30:55;-4.90;96.30
26053;DHT22;13826;51.186;4.450;2022-12-18T06:33:20;-4.80;96.30
26053;DHT22;13826;51.186;4.450;2022-12-18T06:35:46;-4.90;95.70
26053;DHT22;13826;51.186;4.450;2022-12-18T06:38:12;-5.00;96.10
26053;DHT22;13826;51.186;4.450;2022-12-18T06:40:38;-5.10;96.60
26053;DHT22;13826;51.186;4.450;2022-12-18T06:43:04;-5.00;97.20
26053;DHT22;13826;51.186;4.450;2022-12-18T06:45:30;-4.90;97.00
26053;DHT22;13826;51.186;4.450;2022-12-18T06:47:55;-4.70;96.30
26053;DHT22;13826;51.186;4.450;2022-12-18T06:50:21;-4.60;95.40
26053;DHT22;13826;51.186;4.450;2022-12-18T06:52:46;-4.60;94.30
26053;DHT22;13826;51.186;4.450;2022-12-18T06:55:12;-4.70;94.30
26053;DHT22;13826;51.186;4.450;2022-12-18T06:57:38;-4.60;94.30
26053;DHT22;13826;51.186;4.450;2022-12-18T07:00:04;-4.50;94.40
26053;DHT22;13826;51.186;4.450;2022-12-18T07:02:30;-4.20;93.10
26053;DHT22;13826;51.186;4.450;2022-12-18T07:04:55;-4.20;91.00
26053;DHT22;13826;51.186;4.450;2022-12-18T07:07:21;-4.40;90.40
26053;DHT22;13826;51.186;4.450;2022-12-18T07:09:46;-4.50;91.40
26053;DHT22;13826;51.186;4.450;2022-12-18T07:12:12;-4.70;91.40
26053;DHT22;13826;51.186;4.450;2022-12-18T07:14:38;-5.00;92.90
26053;DHT22;13826;51.186;4.450;2022-12-18T07:17:06;-5.00;93.90
26053;DHT22;13826;51.186;4.450;2022-12-18T07:19:32;-4.90;94.00
26053;DHT22;13826;51.186;4.450;2022-12-18T07:21:58;-4.80;94.10
26053;DHT22;13826;51.186;4.450;2022-12-18T07:24:24;-4.60;93.50
26053;DHT22;13826;51.186;4.450;2022-12-18T07:26:49;-4.60;92.40
26053;DHT22;13826;51.186;4.450;2022-12-18T07:29:15;-4.70;92.20
26053;DHT22;13826;51.186;4.450;2022-12-18T07:31:40;-4.90;92.30
26053;DHT22;13826;51.186;4.450;2022-12-18T07:34:09;-5.00;93.20
26053;DHT22;13826;51.186;4.450;2022-12-18T07:36:35;-5.00;94.10
26053;DHT22;13826;51.186;4.450;2022-12-18T07:39:00;-4.90;93.90
26053;DHT22;13826;51.186;4.450;2022-12-18T07:41:26;-4.70;94.10
26053;DHT22;13826;51.186;4.450;2022-12-18T07:43:51;-4.60;92.60
26053;DHT22;13826;51.186;4.450;2022-12-18T07:46:17;-4.60;91.50
26053;DHT22;13826;51.186;4.450;2022-12-18T07:48:43;-4.80;91.30
26053;DHT22;13826;51.186;4.450;2022-12-18T07:51:09;-4.80;92.20
26053;DHT22;13826;51.186;4.450;2022-12-18T07:53:34;-4.90;91.90
26053;DHT22;13826;51.186;4.450;2022-12-18T07:56:01;-5.00;92.00
26053;DHT22;13826;51.186;4.450;2022-12-18T07:58:28;-5.00;92.50
26053;DHT22;13826;51.186;4.450;2022-12-18T08:00:53;-4.80;92.30
26053;DHT22;13826;51.186;4.450;2022-12-18T08:03:19;-4.90;91.50
26053;DHT22;13826;51.186;4.450;2022-12-18T08:05:45;-4.90;92.00
26053;DHT22;13826;51.186;4.450;2022-12-18T08:08:10;-4.80;92.40
26053;DHT22;13826;51.186;4.450;2022-12-18T08:10:36;-4.60;92.20
26053;DHT22;13826;51.186;4.450;2022-12-18T08:13:02;-4.30;90.40
26053;DHT22;13826;51.186;4.450;2022-12-18T08:15:27;-4.30;88.50
26053;DHT22;13826;51.186;4.450;2022-12-18T08:17:56;-4.20;86.10
26053;DHT22;13826;51.186;4.450;2022-12-18T08:20:21;-4.20;85.20
26053;DHT22;13826;51.186;4.450;2022-12-18T08:22:47;-4.10;81.50
26053;DHT22;13826;51.186;4.450;2022-12-18T08:25:12;-3.90;79.50
26053;DHT22;13826;51.186;4.450;2022-12-18T08:27:38;-4.00;79.80
26053;DHT22;13826;51.186;4.450;2022-12-18T08:30:03;-4.20;79.60
26053;DHT22;13826;51.186;4.450;2022-12-18T08:32:29;-4.10;81.70
26053;DHT22;13826;51.186;4.450;2022-12-18T08:37:55;-4.10;80.70
26053;DHT22;13826;51.186;4.450;2022-12-18T08:40:31;-3.90;83.90
26053;DHT22;13826;51.186;4.450;2022-12-18T08:42:56;-4.00;82.10
26053;DHT22;13826;51.186;4.450;2022-12-18T08:45:40;-4.00;83.40
26053;DHT22;13826;51.186;4.450;2022-12-18T08:48:06;-3.90;84.60
26053;DHT22;13826;51.186;4.450;2022-12-18T08:50:31;-3.90;83.70
26053;DHT22;13826;51.186;4.450;2022-12-18T08:52:57;-3.60;84.10
26053;DHT22;13826;51.186;4.450;2022-12-18T08:55:23;-3.40;83.60
26053;DHT22;13826;51.186;4.450;2022-12-18T08:57:48;-3.30;75.80
26053;DHT22;13826;51.186;4.450;2022-12-18T09:00:15;-3.30;75.30
26053;DHT22;13826;51.186;4.450;2022-12-18T09:02:40;-2.90;73.60
26053;DHT22;13826;51.186;4.450;2022-12-18T09:05:06;-2.60;66.20
26053;DHT22;13826;51.186;4.450;2022-12-18T09:07:31;-2.50;62.60
26053;DHT22;13826;51.186;4.450;2022-12-18T09:09:57;-2.30;60.10
26053;DHT22;13826;51.186;4.450;2022-12-18T09:12:22;-2.00;53.50
26053;DHT22;13826;51.186;4.450;2022-12-18T09:14:48;-2.50;52.60
26053;DHT22;13826;51.186;4.450;2022-12-18T09:17:14;-2.90;65.20
26053;DHT22;13826;51.186;4.450;2022-12-18T09:19:39;-3.10;69.90
26053;DHT22;13826;51.186;4.450;2022-12-18T09:22:06;-3.10;74.60
26053;DHT22;13826;51.186;4.450;2022-12-18T09:24:35;-2.90;77.80
26053;DHT22;13826;51.186;4.450;2022-12-18T09:27:01;-2.80;74.20
26053;DHT22;13826;51.186;4.450;2022-12-18T09:29:26;-2.80;75.40
26053;DHT22;13826;51.186;4.450;2022-12-18T09:31:52;-2.80;75.60
26053;DHT22;13826;51.186;4.450;2022-12-18T09:34:17;-2.60;76.60
26053;DHT22;13826;51.186;4.450;2022-12-18T09:36:43;-2.50;76.70
26053;DHT22;13826;51.186;4.450;2022-12-18T09:39:08;-2.30;74.50
26053;DHT22;13826;51.186;4.450;2022-12-18T09:46:36;-2.20;71.80
26053;DHT22;13826;51.186;4.450;2022-12-18T09:49:03;-2.00;72.40
26053;DHT22;13826;51.186;4.450;2022-12-18T09:51:35;-2.10;68.60
26053;DHT22;13826;51.186;4.450;2022-12-18T09:54:45;-2.20;70.90
26053;DHT22;13826;51.186;4.450;2022-12-18T09:56:51;-2.00;71.80
26053;DHT22;13826;51.186;4.450;2022-12-18T09:59:27;-2.00;69.20
26053;DHT22;13826;51.186;4.450;2022-12-18T10:01:56;-1.90;73.40
26053;DHT22;13826;51.186;4.450;2022-12-18T10:04:21;-1.60;68.10
26053;DHT22;13826;51.186;4.450;2022-12-18T10:06:59;-1.60;67.30
26053;DHT22;13826;51.186;4.450;2022-12-18T10:09:34;-1.80;70.30
26053;DHT22;13826;51.186;4.450;2022-12-18T10:12:04;-1.70;72.50
26053;DHT22;13826;51.186;4.450;2022-12-18T10:17:13;-1.40;68.40
26053;DHT22;13826;51.186;4.450;2022-12-18T10:19:45;-1.50;68.70
26053;DHT22;13826;51.186;4.450;2022-12-18T10:25:03;-1.90;77.80
26053;DHT22;13826;51.186;4.450;2022-12-18T10:27:30;-2.00;79.00
26053;DHT22;13826;51.186;4.450;2022-12-18T10:29:56;-1.90;83.40
26053;DHT22;13826;51.186;4.450;2022-12-18T10:32:26;-1.70;80.50
26053;DHT22;13826;51.186;4.450;2022-12-18T10:34:53;-1.90;80.20
26053;DHT22;13826;51.186;4.450;2022-12-18T10:37:20;-1.90;83.80
26053;DHT22;13826;51.186;4.450;2022-12-18T10:39:47;-1.80;83.50
26053;DHT22;13826;51.186;4.450;2022-12-18T10:42:29;-1.70;82.20
26053;DHT22;13826;51.186;4.450;2022-12-18T10:45:02;-1.90;83.20
26053;DHT22;13826;51.186;4.450;2022-12-18T10:47:28;-1.80;83.70
26053;DHT22;13826;51.186;4.450;2022-12-18T10:49:54;-1.80;84.60
26053;DHT22;13826;51.186;4.450;2022-12-18T10:52:21;-1.60;85.00
26053;DHT22;13826;51.186;4.450;2022-12-18T10:54:51;-1.40;83.30
26053;DHT22;13826;51.186;4.450;2022-12-18T10:59:53;-1.30;80.00
26053;DHT22;13826;51.186;4.450;2022-12-18T11:02:33;-1.20;79.60
26053;DHT22;13826;51.186;4.450;2022-12-18T11:04:59;-1.20;78.90
26053;DHT22;13826;51.186;4.450;2022-12-18T11:07:26;-1.30;81.70
26053;DHT22;13826;51.186;4.450;2022-12-18T11:10:14;-1.00;78.90
26053;DHT22;13826;51.186;4.450;2022-12-18T11:12:40;-0.90;75.80
26053;DHT22;13826;51.186;4.450;2022-12-18T11:15:06;-1.00;77.90
26053;DHT22;13826;51.186;4.450;2022-12-18T11:17:32;-1.00;78.50
26053;DHT22;13826;51.186;4.450;2022-12-18T11:20:01;-1.10;79.30
26053;DHT22;13826;51.186;4.450;2022-12-18T11:22:27;-1.00;80.70
26053;DHT22;13826;51.186;4.450;2022-12-18T11:24:55;-1.10;81.20
26053;DHT22;13826;51.186;4.450;2022-12-18T11:27:21;-1.10;82.80
26053;DHT22;13826;51.186;4.450;2022-12-18T11:29:46;-0.90;85.00
26053;DHT22;13826;51.186;4.450;2022-12-18T11:34:46;-0.40;76.20
26053;DHT22;13826;51.186;4.450;2022-12-18T11:37:13;-0.40;75.40
26053;DHT22;13826;51.186;4.450;2022-12-18T11:39:51;-0.40;74.40
26053;DHT22;13826;51.186;4.450;2022-12-18T11:44:50;-0.60;79.90
26053;DHT22;13826;51.186;4.450;2022-12-18T11:47:22;-0.70;81.50
26053;DHT22;13826;51.186;4.450;2022-12-18T11:49:51;-0.60;83.10
26053;DHT22;13826;51.186;4.450;2022-12-18T11:54:42;-0.40;83.50
26053;DHT22;13826;51.186;4.450;2022-12-18T11:57:18;-0.40;83.30
26053;DHT22;13826;51.186;4.450;2022-12-18T12:02:36;0.00;80.00
26053;DHT22;13826;51.186;4.450;2022-12-18T12:07:49;-0.10;77.80
26053;DHT22;13826;51.186;4.450;2022-12-18T12:25:46;-0.10;72.50
26053;DHT22;13826;51.186;4.450;2022-12-18T12:30:46;0.10;80.80
26053;DHT22;13826;51.186;4.450;2022-12-18T12:33:22;0.20;75.10
26053;DHT22;13826;51.186;4.450;2022-12-18T12:36:07;0.30;71.30
26053;DHT22;13826;51.186;4.450;2022-12-18T12:38:36;0.20;73.60
26053;DHT22;13826;51.186;4.450;2022-12-18T12:41:04;0.20;76.50
26053;DHT22;13826;51.186;4.450;2022-12-18T12:43:43;0.20;74.80
26053;DHT22;13826;51.186;4.450;2022-12-18T12:46:11;0.30;75.10
26053;DHT22;13826;51.186;4.450;2022-12-18T12:48:47;0.20;77.00
26053;DHT22;13826;51.186;4.450;2022-12-18T12:51:16;0.20;74.90
26053;DHT22;13826;51.186;4.450;2022-12-18T12:53:42;0.20;78.20
26053;DHT22;13826;51.186;4.450;2022-12-18T12:56:08;0.20;77.80
26053;DHT22;13826;51.186;4.450;2022-12-18T13:08:59;0.30;77.60
26053;DHT22;13826;51.186;4.450;2022-12-18T13:11:34;0.10;82.80
26053;DHT22;13826;51.186;4.450;2022-12-18T13:14:20;0.10;85.20
26053;DHT22;13826;51.186;4.450;2022-12-18T13:16:46;0.40;82.70
26053;DHT22;13826;51.186;4.450;2022-12-18T13:19:19;0.70;79.60
26053;DHT22;13826;51.186;4.450;2022-12-18T13:21:51;0.70;73.40
26053;DHT22;13826;51.186;4.450;2022-12-18T13:24:27;0.50;75.40
26053;DHT22;13826;51.186;4.450;2022-12-18T13:26:55;0.50;80.00
26053;DHT22;13826;51.186;4.450;2022-12-18T13:32:25;0.60;74.30
26053;DHT22;13826;51.186;4.450;2022-12-18T13:35:36;0.70;71.60
26053;DHT22;13826;51.186;4.450;2022-12-18T13:37:51;0.80;70.10
26053;DHT22;13826;51.186;4.450;2022-12-18T13:43:01;1.30;57.70
26053;DHT22;13826;51.186;4.450;2022-12-18T13:45:40;1.30;52.70
26053;DHT22;13826;51.186;4.450;2022-12-18T13:48:14;1.10;56.10
26053;DHT22;13826;51.186;4.450;2022-12-18T13:50:40;1.20;54.10
26053;DHT22;13826;51.186;4.450;2022-12-18T13:53:06;1.10;56.20
26053;DHT22;13826;51.186;4.450;2022-12-18T13:55:32;1.00;58.10
26053;DHT22;13826;51.186;4.450;2022-12-18T13:58:05;0.90;59.10
26053;DHT22;13826;51.186;4.450;2022-12-18T14:00:31;0.90;66.70
26053;DHT22;13826;51.186;4.450;2022-12-18T14:02:57;0.70;67.90
26053;DHT22;13826;51.186;4.450;2022-12-18T14:07:51;1.00;66.60
26053;DHT22;13826;51.186;4.450;2022-12-18T14:10:17;1.10;62.90
26053;DHT22;13826;51.186;4.450;2022-12-18T14:12:47;1.20;59.60
26053;DHT22;13826;51.186;4.450;2022-12-18T14:20:31;1.30;53.10
26053;DHT22;13826;51.186;4.450;2022-12-18T14:22:58;1.10;57.50
26053;DHT22;13826;51.186;4.450;2022-12-18T14:25:29;1.30;56.40
26053;DHT22;13826;51.186;4.450;2022-12-18T14:30:36;1.30;52.10
26053;DHT22;13826;51.186;4.450;2022-12-18T14:33:12;1.20;59.70
26053;DHT22;13826;51.186;4.450;2022-12-18T14:38:30;1.10;62.40
26053;DHT22;13826;51.186;4.450;2022-12-18T14:40:57;1.00;69.00
26053;DHT22;13826;51.186;4.450;2022-12-18T14:43:23;0.80;70.50
26053;DHT22;13826;51.186;4.450;2022-12-18T14:45:51;0.70;76.30
26053;DHT22;13826;51.186;4.450;2022-12-18T14:51:06;0.80;77.20
26053;DHT22;13826;51.186;4.450;2022-12-18T14:53:33;0.70;80.00
26053;DHT22;13826;51.186;4.450;2022-12-18T14:56:00;0.70;81.40
26053;DHT22;13826;51.186;4.450;2022-12-18T14:58:26;0.80;81.30
26053;DHT22;13826;51.186;4.450;2022-12-18T15:00:52;0.80;79.60
26053;DHT22;13826;51.186;4.450;2022-12-18T15:03:18;0.70;81.00
26053;DHT22;13826;51.186;4.450;2022-12-18T15:05:44;0.80;79.40
26053;DHT22;13826;51.186;4.450;2022-12-18T15:14:21;1.00;73.50
26053;DHT22;13826;51.186;4.450;2022-12-18T15:16:53;1.00;74.00
26053;DHT22;13826;51.186;4.450;2022-12-18T15:19:20;0.80;78.20
26053;DHT22;13826;51.186;4.450;2022-12-18T15:21:46;0.80;77.90
26053;DHT22;13826;51.186;4.450;2022-12-18T15:24:18;0.90;75.40
26053;DHT22;13826;51.186;4.450;2022-12-18T15:26:45;1.00;72.20
26053;DHT22;13826;51.186;4.450;2022-12-18T15:29:18;1.00;68.40
26053;DHT22;13826;51.186;4.450;2022-12-18T15:32:00;1.00;68.60
26053;DHT22;13826;51.186;4.450;2022-12-18T15:34:26;1.00;69.80
26053;DHT22;13826;51.186;4.450;2022-12-18T15:36:52;1.10;66.90
26053;DHT22;13826;51.186;4.450;2022-12-18T15:39:18;1.10;63.80
26053;DHT22;13826;51.186;4.450;2022-12-18T15:41:44;1.10;66.90
26053;DHT22;13826;51.186;4.450;2022-12-18T15:44:29;1.10;64.30
26053;DHT22;13826;51.186;4.450;2022-12-18T15:46:55;1.20;66.20
26053;DHT22;13826;51.186;4.450;2022-12-18T15:49:20;1.30;59.40
26053;DHT22;13826;51.186;4.450;2022-12-18T15:51:47;1.30;56.40
26053;DHT22;13826;51.186;4.450;2022-12-18T15:54:18;1.30;54.90
26053;DHT22;13826;51.186;4.450;2022-12-18T15:57:04;1.20;55.00
26053;DHT22;13826;51.186;4.450;2022-12-18T15:59:48;1.30;54.50
26053;DHT22;13826;51.186;4.450;2022-12-18T16:02:18;1.40;52.80
26053;DHT22;13826;51.186;4.450;2022-12-18T16:04:44;1.40;50.00
26053;DHT22;13826;51.186;4.450;2022-12-18T16:07:11;1.50;51.10
26053;DHT22;13826;51.186;4.450;2022-12-18T16:09:37;1.50;48.50
26053;DHT22;13826;51.186;4.450;2022-12-18T16:12:04;1.40;46.70
26053;DHT22;13826;51.186;4.450;2022-12-18T16:14:30;1.30;46.40
26053;DHT22;13826;51.186;4.450;2022-12-18T16:16:57;1.10;53.20
26053;DHT22;13826;51.186;4.450;2022-12-18T16:19:23;1.10;53.60
26053;DHT22;13826;51.186;4.450;2022-12-18T16:21:50;1.20;50.50
26053;DHT22;13826;51.186;4.450;2022-12-18T16:24:17;1.50;46.90
26053;DHT22;13826;51.186;4.450;2022-12-18T16:26:45;1.40;40.50
26053;DHT22;13826;51.186;4.450;2022-12-18T16:29:11;1.40;42.20
26053;DHT22;13826;51.186;4.450;2022-12-18T16:31:37;1.50;41.30
26053;DHT22;13826;51.186;4.450;2022-12-18T16:34:09;1.50;38.70
26053;DHT22;13826;51.186;4.450;2022-12-18T16:36:35;1.50;41.30
26053;DHT22;13826;51.186;4.450;2022-12-18T16:39:01;1.80;35.90
26053;DHT22;13826;51.186;4.450;2022-12-18T16:41:26;1.90;27.20
26053;DHT22;13826;51.186;4.450;2022-12-18T16:43:59;1.90;24.00
26053;DHT22;13826;51.186;4.450;2022-12-18T16:46:24;1.70;27.90
26053;DHT22;13826;51.186;4.450;2022-12-18T16:48:50;1.80;28.70
26053;DHT22;13826;51.186;4.450;2022-12-18T16:51:15;1.70;26.50
26053;DHT22;13826;51.186;4.450;2022-12-18T16:53:41;1.80;24.70
26053;DHT22;13826;51.186;4.450;2022-12-18T16:56:07;1.90;20.90
26053;DHT22;13826;51.186;4.450;2022-12-18T16:58:32;2.00;20.10
26053;DHT22;13826;51.186;4.450;2022-12-18T17:00:58;2.00;19.70
26053;DHT22;13826;51.186;4.450;2022-12-18T17:03:24;1.80;19.90
26053;DHT22;13826;51.186;4.450;2022-12-18T17:05:49;1.80;23.70
26053;DHT22;13826;51.186;4.450;2022-12-18T17:08:15;1.70;25.20
26053;DHT22;13826;51.186;4.450;2022-12-18T17:10:43;1.70;26.00
26053;DHT22;13826;51.186;4.450;2022-12-18T17:13:09;1.70;22.60
26053;DHT22;13826;51.186;4.450;2022-12-18T17:15:34;1.80;21.30
26053;DHT22;13826;51.186;4.450;2022-12-18T17:18:00;1.80;22.60
26053;DHT22;13826;51.186;4.450;2022-12-18T17:20:26;1.90;20.50
26053;DHT22;13826;51.186;4.450;2022-12-18T17:22:52;1.90;18.50
26053;DHT22;13826;51.186;4.450;2022-12-18T17:25:17;1.80;19.50
26053;DHT22;13826;51.186;4.450;2022-12-18T17:27:43;1.80;20.50
26053;DHT22;13826;51.186;4.450;2022-12-18T17:30:09;1.80;21.70
26053;DHT22;13826;51.186;4.450;2022-12-18T17:32:34;1.70;21.30
26053;DHT22;13826;51.186;4.450;2022-12-18T17:35:00;1.90;20.60